KADS/ADS METAR and TAF weather

Enter ICAO airport designator
Station Type Date Time Source
KADS METAR 2021/05/15 00:45 UTC NOAA

KADS 150045Z 16011G18KT 10SM SCT100 23/12 A3009


Station Type Date Time Source
KADS Decoded METAR 2021/05/15 00:45 UTC NOAA

Dallas / Addison Airport, TX, United States (KADS) 32-58N 096-50W
May 14, 2021 - 08:45 PM EDT / 2021.05.15 0045 UTC
Wind: from the SSE (160 degrees) at 13 MPH (11 KT) gusting to 21 MPH (18 KT):0
Visibility: 10 mile(s):0
Sky conditions: partly cloudy
Temperature: 73 F (23 C)
Dew Point: 53 F (12 C)
Relative Humidity: 49%
Pressure (altimeter): 30.09 in. Hg (1018 hPa)
ob: KADS 150045Z 16011G18KT 10SM SCT100 23/12 A3009
cycle: 1

Station Type Date Time Source
KADS TAF UTC NOAA

Error!

Example: see airport list